Time;durP1;ratioP1;P1;durP2;ratioP2;P2;SDS_P1;SDS_P2;PMS_P1;PMS_P2;Temp;Humidity;BMP_temperature;BMP_pressure;BME280_temperature;BME280_humidity;BME280_pressure;Samples;Min_cycle;Max_cycle;Signal;HPM_P1;HPM_P2
2024/03/03 00:02:04;;;;;;;32.30;18.10;;;8.70;14.00;;;;;;5051822;28;20408;-74
2024/03/03 00:04:33;;;;;;;25.27;18.87;;;8.70;14.00;;;;;;5033576;28;20197;-75
2024/03/03 00:06:59;;;;;;;23.27;17.13;;;8.70;14.00;;;;;;5052039;28;20412;-73
2024/03/03 00:09:24;;;;;;;27.80;17.20;;;8.60;13.90;;;;;;5051821;28;20426;-73
2024/03/03 00:11:50;;;;;;;29.57;18.07;;;8.60;14.60;;;;;;5051873;28;20217;-73
2024/03/03 00:14:16;;;;;;;31.53;18.77;;;8.60;13.90;;;;;;5033679;28;20210;-74
2024/03/03 00:16:42;;;;;;;27.47;16.70;;;8.60;13.90;;;;;;5033858;28;20617;-73
2024/03/03 00:19:09;;;;;;;31.20;17.83;;;8.60;13.90;;;;;;5052094;28;20163;-72
2024/03/03 00:21:34;;;;;;;31.40;19.47;;;8.60;13.50;;;;;;5052134;28;20961;-74
2024/03/03 00:24:01;;;;;;;28.83;18.63;;;8.60;13.90;;;;;;5051681;28;20413;-74
2024/03/03 00:26:27;;;;;;;27.87;18.23;;;8.60;13.10;;;;;;5051592;28;20410;-74
2024/03/03 00:28:52;;;;;;;28.33;16.97;;;8.60;13.40;;;;;;5033812;28;20463;-75
2024/03/03 00:31:18;;;;;;;25.50;15.90;;;8.70;13.10;;;;;;5051715;28;20900;-73
2024/03/03 00:33:45;;;;;;;24.93;17.40;;;8.60;13.40;;;;;;5033630;28;20649;-74
2024/03/03 00:36:11;;;;;;;23.53;17.97;;;8.50;13.80;;;;;;5052585;28;20420;-75
2024/03/03 00:38:37;;;;;;;23.90;15.03;;;8.40;15.20;;;;;;5052298;28;20839;-74
2024/03/03 00:41:04;;;;;;;22.80;15.93;;;8.40;15.40;;;;;;5051835;28;20186;-74
2024/03/03 00:43:34;;;;;;;24.67;15.90;;;8.40;15.00;;;;;;5051497;28;20405;-75
2024/03/03 00:46:00;;;;;;;27.47;18.30;;;8.50;13.80;;;;;;5034275;28;20983;-75
2024/03/03 00:48:25;;;;;;;29.23;18.87;;;8.40;13.80;;;;;;5052594;28;20716;-75
2024/03/03 00:50:51;;;;;;;21.40;15.07;;;8.40;15.20;;;;;;5055072;28;20190;-75
2024/03/03 00:53:18;;;;;;;23.63;16.03;;;8.40;14.30;;;;;;5038061;28;20178;-74
2024/03/03 00:55:47;;;;;;;27.17;16.67;;;8.40;14.50;;;;;;5036839;28;20441;-75
2024/03/03 00:58:14;;;;;;;30.13;19.03;;;8.30;14.30;;;;;;5055668;28;20460;-75
2024/03/03 01:00:39;;;;;;;28.17;16.97;;;8.30;13.70;;;;;;5058684;28;20420;-75
2024/03/03 01:03:06;;;;;;;23.73;15.37;;;8.20;14.40;;;;;;5062461;28;20410;-75
2024/03/03 01:05:31;;;;;;;26.73;17.07;;;8.20;14.40;;;;;;5064102;28;20194;-75
2024/03/03 01:07:57;;;;;;;25.80;15.93;;;8.00;16.60;;;;;;5064852;28;20417;-74
2024/03/03 01:10:23;;;;;;;24.43;15.50;;;7.90;17.70;;;;;;5060614;28;20189;-75
2024/03/03 01:12:48;;;;;;;28.33;17.10;;;7.80;17.70;;;;;;5058403;28;20178;-73
2024/03/03 01:15:14;;;;;;;24.90;17.20;;;7.80;17.70;;;;;;5057681;28;20274;-74
2024/03/03 01:17:40;;;;;;;29.40;19.60;;;7.70;17.10;;;;;;5057507;28;20233;-74
2024/03/03 01:20:06;;;;;;;29.40;18.33;;;7.70;17.00;;;;;;5057457;28;20205;-74
2024/03/03 01:22:32;;;;;;;25.90;17.30;;;7.60;18.90;;;;;;5057499;28;20210;-74
2024/03/03 01:24:58;;;;;;;24.43;17.87;;;7.60;19.10;;;;;;5058284;28;20859;-73
2024/03/03 01:27:24;;;;;;;30.77;17.87;;;7.60;19.80;;;;;;5058212;28;20789;-74
2024/03/03 01:29:50;;;;;;;25.70;16.53;;;7.50;19.50;;;;;;5039524;28;20512;-75
2024/03/03 01:32:16;;;;;;;23.33;17.47;;;7.40;19.80;;;;;;5056884;28;20934;-74
2024/03/03 01:34:42;;;;;;;30.30;18.00;;;7.30;21.60;;;;;;5037879;28;20197;-73
2024/03/03 01:37:10;;;;;;;25.20;17.57;;;7.20;20.80;;;;;;5055661;28;20463;-74
2024/03/03 01:39:38;;;;;;;30.33;17.90;;;7.20;21.50;;;;;;5054886;28;20545;-74
2024/03/03 01:42:07;;;;;;;23.43;16.50;;;7.10;21.50;;;;;;5036965;28;20788;-74
2024/03/03 01:44:33;;;;;;;28.70;16.77;;;7.10;22.20;;;;;;5054748;28;20436;-74
2024/03/03 01:46:59;;;;;;;26.70;16.17;;;7.00;22.50;;;;;;5055316;28;20974;-73
2024/03/03 01:49:26;;;;;;;23.10;17.77;;;6.90;21.50;;;;;;5037690;28;20720;-75
2024/03/03 01:51:52;;;;;;;27.40;15.53;;;6.80;23.20;;;;;;5055020;28;20416;-73
2024/03/03 01:54:19;;;;;;;28.47;17.73;;;6.80;24.00;;;;;;5054549;28;20436;-74
2024/03/03 01:56:47;;;;;;;20.17;14.87;;;6.80;23.00;;;;;;5054725;28;20791;-74
2024/03/03 01:59:14;;;;;;;24.03;16.83;;;6.70;23.60;;;;;;5055206;28;20487;-74
2024/03/03 02:01:42;;;;;;;22.50;17.13;;;6.70;24.10;;;;;;5055012;28;20416;-74
2024/03/03 02:04:09;;;;;;;26.80;17.73;;;6.60;24.60;;;;;;5054657;28;20439;-73
2024/03/03 02:06:36;;;;;;;26.63;16.07;;;6.60;24.90;;;;;;5055081;28;20409;-74
2024/03/03 02:09:02;;;;;;;25.20;16.83;;;6.40;25.60;;;;;;5054836;28;20413;-75
2024/03/03 02:11:29;;;;;;;28.83;18.50;;;6.40;27.00;;;;;;5036593;28;20488;-74
2024/03/03 02:13:54;;;;;;;28.27;18.00;;;6.40;26.80;;;;;;5054627;28;20775;-74
2024/03/03 02:16:20;;;;;;;28.10;18.60;;;6.40;26.70;;;;;;5036025;28;20412;-74
2024/03/03 02:18:46;;;;;;;27.67;19.27;;;6.30;26.30;;;;;;5036377;28;20232;-75
2024/03/03 02:21:12;;;;;;;32.10;20.10;;;6.20;26.50;;;;;;5036668;28;20177;-74
2024/03/03 02:23:37;;;;;;;25.27;17.33;;;6.20;27.20;;;;;;5054192;28;20659;-74
2024/03/03 02:26:04;;;;;;;32.87;18.97;;;6.20;27.90;;;;;;5035923;28;20480;-74
2024/03/03 02:28:30;;;;;;;28.77;18.03;;;6.20;28.10;;;;;;5036827;28;20682;-71
2024/03/03 02:30:55;;;;;;;24.77;17.50;;;6.20;28.20;;;;;;5054225;28;20416;-73
2024/03/03 02:33:21;;;;;;;32.30;18.07;;;6.10;29.00;;;;;;5054039;28;20484;-74
2024/03/03 02:35:47;;;;;;;25.77;16.20;;;6.00;28.40;;;;;;5036191;28;20198;-74
2024/03/03 02:38:12;;;;;;;23.93;16.30;;;6.00;30.00;;;;;;5053664;28;20789;-75
2024/03/03 02:40:38;;;;;;;37.10;20.00;;;5.90;29.20;;;;;;5054209;28;20178;-74
2024/03/03 02:43:04;;;;;;;27.17;20.20;;;5.90;29.60;;;;;;5053842;28;20187;-73
2024/03/03 02:45:30;;;;;;;24.10;17.03;;;5.90;29.00;;;;;;5053467;28;20200;-75
2024/03/03 02:47:57;;;;;;;21.40;16.87;;;5.80;29.50;;;;;;5053684;28;20499;-73
2024/03/03 02:50:23;;;;;;;29.17;17.70;;;5.80;30.00;;;;;;5053748;28;20176;-74
2024/03/03 02:52:48;;;;;;;26.80;17.53;;;5.70;30.00;;;;;;5035776;28;20966;-73
2024/03/03 02:55:14;;;;;;;28.57;18.30;;;5.60;30.30;;;;;;5053291;28;20438;-74
2024/03/03 02:57:40;;;;;;;26.70;18.00;;;5.60;31.00;;;;;;5053431;28;20207;-74
2024/03/03 03:00:06;;;;;;;29.73;18.27;;;5.50;31.10;;;;;;5035059;28;20633;-74
2024/03/03 03:02:32;;;;;;;29.03;17.30;;;5.40;31.00;;;;;;5053270;28;20747;-74
2024/03/03 03:04:58;;;;;;;26.17;17.57;;;5.40;31.60;;;;;;5052825;28;20439;-74
2024/03/03 03:07:24;;;;;;;24.50;15.93;;;5.40;32.40;;;;;;5035051;28;20699;-73
2024/03/03 03:09:50;;;;;;;30.03;19.13;;;5.40;32.50;;;;;;5052864;28;20418;-74
2024/03/03 03:12:15;;;;;;;22.80;15.20;;;5.30;31.50;;;;;;5052921;28;20448;-74
2024/03/03 03:14:41;;;;;;;33.27;17.30;;;5.20;34.50;;;;;;5050235;23;20485;-69
2024/03/03 03:17:07;;;;;;;29.13;16.07;;;5.20;33.20;;;;;;5058193;28;20548;-69
2024/03/03 03:19:33;;;;;;;28.97;17.10;;;5.20;35.40;;;;;;5057859;28;20175;-68
2024/03/03 03:21:59;;;;;;;29.97;20.03;;;5.10;33.80;;;;;;5039681;28;20535;-69
2024/03/03 03:24:26;;;;;;;28.53;18.00;;;5.20;34.60;;;;;;5056122;28;20228;-69
2024/03/03 03:26:52;;;;;;;36.93;19.80;;;5.10;34.90;;;;;;5056378;28;20405;-68
2024/03/03 03:29:18;;;;;;;30.83;18.10;;;5.00;34.10;;;;;;5057160;28;20468;-68
2024/03/03 03:31:44;;;;;;;28.33;19.60;;;5.00;36.40;;;;;;5055942;28;20414;-69
2024/03/03 03:34:10;;;;;;;37.27;19.23;;;4.90;35.50;;;;;;5053696;28;20777;-68
2024/03/03 03:36:36;;;;;;;38.20;20.87;;;4.90;38.10;;;;;;5038274;28;20437;-69
2024/03/03 03:39:01;;;;;;;32.43;22.47;;;4.90;39.30;;;;;;5056832;28;20456;-69
2024/03/03 03:41:28;;;;;;;37.03;23.87;;;4.80;40.40;;;;;;5037860;28;20251;-69
2024/03/03 03:43:54;;;;;;;35.07;23.57;;;4.80;40.30;;;;;;5055628;28;20194;-69
2024/03/03 03:46:20;;;;;;;29.43;20.37;;;4.90;42.20;;;;;;5055741;28;20848;-69
2024/03/03 03:48:45;;;;;;;31.97;20.87;;;4.80;42.70;;;;;;5057306;28;20413;-69
2024/03/03 03:51:11;;;;;;;32.90;20.60;;;4.90;41.60;;;;;;5056439;28;20428;-69
2024/03/03 03:53:36;;;;;;;30.90;19.53;;;4.80;40.10;;;;;;5058158;28;20178;-70
2024/03/03 03:56:02;;;;;;;30.93;20.33;;;4.80;40.70;;;;;;5058284;28;20225;-69
2024/03/03 03:58:28;;;;;;;34.53;20.90;;;4.80;40.00;;;;;;5055722;28;20211;-69
2024/03/03 04:00:53;;;;;;;31.93;20.07;;;4.80;39.90;;;;;;5055615;28;20167;-70
2024/03/03 04:03:19;;;;;;;31.90;23.00;;;4.80;39.70;;;;;;5056146;28;20661;-70
2024/03/03 04:05:44;;;;;;;31.70;20.37;;;4.80;40.40;;;;;;5058525;28;20556;-68
2024/03/03 04:08:10;;;;;;;37.13;20.53;;;4.80;39.40;;;;;;5056091;28;20481;-69
2024/03/03 04:10:35;;;;;;;33.77;20.60;;;4.80;40.30;;;;;;5054827;28;20170;-69
2024/03/03 04:13:01;;;;;;;33.30;17.00;;;4.80;40.60;;;;;;5057930;28;20189;-70
2024/03/03 04:15:27;;;;;;;33.10;18.70;;;4.80;40.60;;;;;;5040300;28;20225;-69
2024/03/03 04:17:52;;;;;;;30.83;17.90;;;4.80;41.00;;;;;;5056897;28;20288;-69
2024/03/03 04:20:18;;;;;;;28.13;18.37;;;4.70;40.10;;;;;;5055440;28;20222;-69
2024/03/03 04:22:44;;;;;;;24.87;16.30;;;4.70;40.20;;;;;;5054764;28;20218;-69
2024/03/03 04:25:09;;;;;;;26.17;15.87;;;4.70;39.40;;;;;;5052772;28;20190;-68
2024/03/03 04:27:38;;;;;;;25.80;16.40;;;4.70;41.40;;;;;;5052798;28;20262;-69
2024/03/03 04:30:05;;;;;;;28.30;17.07;;;4.70;40.00;;;;;;5052449;28;20562;-69
2024/03/03 04:32:30;;;;;;;24.30;17.20;;;4.80;38.90;;;;;;5052347;28;20515;-68
2024/03/03 04:35:00;;;;;;;33.67;16.60;;;4.70;37.90;;;;;;5053011;28;20524;-68
2024/03/03 04:37:26;;;;;;;27.93;17.37;;;4.70;38.10;;;;;;5036904;28;20206;-69
2024/03/03 04:39:51;;;;;;;26.83;15.77;;;4.60;38.40;;;;;;5058591;28;20496;-69
2024/03/03 04:42:17;;;;;;;30.57;19.07;;;4.70;39.60;;;;;;5059524;28;20235;-69
2024/03/03 04:44:42;;;;;;;33.43;19.70;;;4.70;38.30;;;;;;5059502;28;20269;-69
2024/03/03 04:47:10;;;;;;;26.83;17.80;;;4.80;37.60;;;;;;5039348;28;20179;-69
2024/03/03 04:49:38;;;;;;;24.13;17.23;;;4.70;38.90;;;;;;5057171;28;20170;-68
2024/03/03 04:52:04;;;;;;;30.10;19.90;;;4.80;40.40;;;;;;5039173;28;20421;-68
2024/03/03 04:54:30;;;;;;;33.00;17.67;;;4.80;38.90;;;;;;5057344;28;20429;-68
2024/03/03 04:56:55;;;;;;;29.50;17.83;;;4.80;37.90;;;;;;5057352;28;20597;-69
2024/03/03 04:59:21;;;;;;;30.53;18.63;;;4.70;40.30;;;;;;5059077;28;20251;-69
2024/03/03 05:01:46;;;;;;;38.30;21.53;;;4.80;39.90;;;;;;5058546;28;20217;-68
2024/03/03 05:04:13;;;;;;;42.00;22.07;;;4.80;40.60;;;;;;5056699;28;20223;-68
2024/03/03 05:06:45;;;;;;;35.60;22.77;;;4.80;39.20;;;;;;5056353;28;20580;-68
2024/03/03 05:09:10;;;;;;;38.03;23.43;;;4.80;40.40;;;;;;5056533;28;20455;-68
2024/03/03 05:11:36;;;;;;;41.43;22.13;;;4.80;39.00;;;;;;5058455;28;20820;-69
2024/03/03 05:14:01;;;;;;;39.70;24.00;;;4.80;39.70;;;;;;5060141;28;20226;-69
2024/03/03 05:16:27;;;;;;;32.83;20.83;;;4.80;39.60;;;;;;5057887;28;20201;-69
2024/03/03 05:18:52;;;;;;;38.00;24.37;;;4.80;39.80;;;;;;5058955;28;20264;-70
2024/03/03 05:21:18;;;;;;;32.30;21.93;;;4.80;40.20;;;;;;5040466;28;20485;-69
2024/03/03 05:23:43;;;;;;;34.83;23.57;;;4.80;40.40;;;;;;5058506;28;20551;-69
2024/03/03 05:26:15;;;;;;;33.97;21.73;;;4.70;40.40;;;;;;5058793;28;20202;-68
2024/03/03 05:28:41;;;;;;;35.93;20.27;;;4.70;39.50;;;;;;5057496;28;20238;-68
2024/03/03 05:31:06;;;;;;;41.00;22.10;;;4.70;40.60;;;;;;5056033;28;20448;-68
2024/03/03 05:33:32;;;;;;;39.80;22.40;;;4.60;41.10;;;;;;5054792;28;20194;-68
2024/03/03 05:35:58;;;;;;;33.20;22.30;;;4.60;40.50;;;;;;5055685;28;20218;-68
2024/03/03 05:38:24;;;;;;;32.57;20.60;;;4.60;38.70;;;;;;5037974;28;20465;-69
2024/03/03 05:40:49;;;;;;;37.23;22.10;;;4.50;40.50;;;;;;5037925;28;20177;-69
2024/03/03 05:43:15;;;;;;;30.47;19.93;;;4.50;41.10;;;;;;5055556;28;20534;-68
2024/03/03 05:45:40;;;;;;;24.73;17.73;;;4.50;40.60;;;;;;5056327;28;20270;-69
2024/03/03 05:48:06;;;;;;;36.10;19.67;;;4.50;41.90;;;;;;5055858;28;20673;-69
2024/03/03 05:50:32;;;;;;;32.43;18.93;;;4.50;40.20;;;;;;5038771;28;20567;-68
2024/03/03 05:52:57;;;;;;;38.27;20.73;;;4.50;41.10;;;;;;5040091;28;20170;-69
2024/03/03 05:55:23;;;;;;;39.23;21.30;;;4.50;40.00;;;;;;5057760;28;20202;-68
2024/03/03 05:57:48;;;;;;;37.73;22.27;;;4.50;42.20;;;;;;5057425;28;20206;-68
2024/03/03 06:00:15;;;;;;;35.37;21.17;;;4.60;41.90;;;;;;5056694;28;20179;-68
2024/03/03 06:02:42;;;;;;;34.40;19.33;;;4.60;41.70;;;;;;5055574;28;20171;-68
2024/03/03 06:05:08;;;;;;;30.53;19.00;;;4.60;39.70;;;;;;5037844;28;20534;-68
2024/03/03 06:07:33;;;;;;;29.80;17.97;;;4.50;40.80;;;;;;5056405;28;20439;-68
2024/03/03 06:09:59;;;;;;;31.50;18.17;;;4.50;42.30;;;;;;5056276;28;20417;-68
2024/03/03 06:12:24;;;;;;;29.77;20.13;;;4.60;41.50;;;;;;5055868;28;20240;-68
2024/03/03 06:14:51;;;;;;;35.20;22.70;;;4.60;42.10;;;;;;5055738;28;20218;-68
2024/03/03 06:17:17;;;;;;;37.00;21.77;;;4.60;41.70;;;;;;5055772;28;20199;-68
2024/03/03 06:19:43;;;;;;;31.60;21.50;;;4.70;41.20;;;;;;5038051;28;21010;-68
2024/03/03 06:22:08;;;;;;;34.73;21.03;;;4.70;41.50;;;;;;5056279;28;20179;-69
2024/03/03 06:24:34;;;;;;;31.03;19.77;;;4.80;41.20;;;;;;5055953;28;20247;-67
2024/03/03 06:27:00;;;;;;;34.77;19.87;;;4.80;40.80;;;;;;5057122;28;20370;-70
2024/03/03 06:29:26;;;;;;;34.80;21.17;;;4.90;41.70;;;;;;5040311;28;20186;-69
2024/03/03 06:31:52;;;;;;;29.80;18.43;;;4.90;40.40;;;;;;5058475;28;20424;-70
2024/03/03 06:34:18;;;;;;;32.63;18.90;;;5.00;41.40;;;;;;5058156;28;20410;-69
2024/03/03 06:36:43;;;;;;;36.77;22.17;;;5.20;40.90;;;;;;5057818;28;20602;-69
2024/03/03 06:39:14;;;;;;;34.10;21.47;;;5.30;40.80;;;;;;5056018;28;20735;-74
2024/03/03 06:41:42;;;;;;;34.40;21.10;;;5.50;39.80;;;;;;5058171;28;20188;-67
2024/03/03 06:44:08;;;;;;;36.50;20.90;;;5.70;38.70;;;;;;5057159;28;20470;-68
2024/03/03 06:46:34;;;;;;;31.20;18.37;;;5.70;37.80;;;;;;5056779;28;20500;-69
2024/03/03 06:48:59;;;;;;;30.10;19.90;;;5.90;37.90;;;;;;5057896;28;20225;-68
2024/03/03 06:51:25;;;;;;;26.37;20.20;;;6.10;37.00;;;;;;5057859;28;20633;-68
2024/03/03 06:53:50;;;;;;;33.83;20.97;;;6.30;33.40;;;;;;5040798;28;20175;-68
2024/03/03 06:56:17;;;;;;;26.00;18.70;;;6.40;30.40;;;;;;5059088;28;20226;-69
2024/03/03 06:58:44;;;;;;;32.83;20.00;;;6.50;30.00;;;;;;5058564;28;20270;-68
2024/03/03 07:01:11;;;;;;;30.70;20.90;;;6.80;29.50;;;;;;5056677;28;20462;-68
2024/03/03 07:06:20;;;;;;;30.67;19.57;;;7.30;25.50;;;;;;5059009;28;20443;-68
2024/03/03 07:08:46;;;;;;;24.30;17.07;;;7.40;21.20;;;;;;5058678;28;20876;-68
2024/03/03 07:11:12;;;;;;;31.97;18.77;;;7.70;21.90;;;;;;5040738;28;20186;-68
2024/03/03 07:13:37;;;;;;;33.37;22.07;;;7.80;17.90;;;;;;5040150;28;20200;-69
2024/03/03 07:16:03;;;;;;;26.80;19.30;;;8.00;18.50;;;;;;5057139;28;20244;-69
2024/03/03 07:18:28;;;;;;;26.90;19.10;;;8.10;17.00;;;;;;5055584;28;20198;-69
2024/03/03 07:20:54;;;;;;;31.03;19.80;;;8.30;16.30;;;;;;5056983;28;20189;-68
2024/03/03 07:23:19;;;;;;;30.80;21.80;;;8.20;14.90;;;;;;5057093;28;20175;-68
2024/03/03 07:25:45;;;;;;;32.20;21.30;;;8.20;14.50;;;;;;5055445;28;20194;-68
2024/03/03 07:28:11;;;;;;;41.70;22.50;;;8.30;15.70;;;;;;5036114;28;20282;-67
2024/03/03 07:30:36;;;;;;;29.60;20.63;;;8.30;15.40;;;;;;5053069;28;20178;-69
2024/03/03 07:33:02;;;;;;;35.30;21.30;;;8.30;15.30;;;;;;5054773;28;20336;-69
2024/03/03 07:35:28;;;;;;;30.00;20.20;;;8.30;14.90;;;;;;5054329;28;20198;-69
2024/03/03 07:37:53;;;;;;;33.63;21.83;;;8.20;16.00;;;;;;5057657;28;20961;-69
2024/03/03 07:40:19;;;;;;;39.03;23.67;;;8.30;17.00;;;;;;5056485;28;20184;-69
2024/03/03 07:42:44;;;;;;;36.03;21.30;;;8.30;16.60;;;;;;5055020;28;20192;-68
2024/03/03 07:45:10;;;;;;;29.17;21.53;;;8.40;15.80;;;;;;5055945;28;20224;-69
2024/03/03 07:47:35;;;;;;;34.77;24.10;;;8.30;15.80;;;;;;5037497;28;20213;-69
2024/03/03 07:50:01;;;;;;;31.43;21.40;;;8.30;17.10;;;;;;5054703;28;20190;-69
2024/03/03 07:52:27;;;;;;;41.67;23.93;;;8.40;16.40;;;;;;5043259;28;20233;-70
2024/03/03 07:54:52;;;;;;;37.07;23.07;;;8.60;16.00;;;;;;5053410;28;20209;-69
2024/03/03 07:57:18;;;;;;;31.90;22.27;;;8.70;15.30;;;;;;5052217;28;20657;-70
2024/03/03 07:59:44;;;;;;;41.63;25.10;;;8.90;14.10;;;;;;5052610;28;20179;-69
2024/03/03 08:02:09;;;;;;;31.00;19.03;;;8.80;13.20;;;;;;5050499;28;20187;-68
2024/03/03 08:04:35;;;;;;;33.33;23.20;;;8.70;12.70;;;;;;5051079;28;20504;-68
2024/03/03 08:07:00;;;;;;;29.90;21.53;;;8.60;13.90;;;;;;5042604;28;20191;-68
2024/03/03 08:09:26;;;;;;;38.00;23.50;;;8.70;13.60;;;;;;5042192;28;20240;-67
2024/03/03 08:11:52;;;;;;;32.20;22.23;;;8.70;14.00;;;;;;5034014;28;20686;-70
2024/03/03 08:14:17;;;;;;;34.93;23.27;;;8.70;14.00;;;;;;5038610;28;20819;-68
2024/03/03 08:16:43;;;;;;;30.03;20.90;;;9.00;13.90;;;;;;5037347;28;20213;-68
2024/03/03 08:19:09;;;;;;;32.30;22.87;;;9.10;13.10;;;;;;5055809;28;20675;-69
2024/03/03 08:21:34;;;;;;;30.33;20.70;;;9.40;12.20;;;;;;5053074;28;20179;-69
2024/03/03 08:24:00;;;;;;;27.87;19.73;;;9.50;10.10;;;;;;5053905;28;20214;-68
2024/03/03 08:26:25;;;;;;;29.70;20.87;;;9.60;9.60;;;;;;5054922;28;20210;-69
2024/03/03 08:28:51;;;;;;;27.70;21.47;;;9.60;7.40;;;;;;5054798;28;20209;-69
2024/03/03 08:31:18;;;;;;;31.57;21.33;;;9.50;8.90;;;;;;5037458;28;20194;-69
2024/03/03 08:33:44;;;;;;;30.47;20.43;;;9.60;7.60;;;;;;5054455;28;20862;-69
2024/03/03 08:36:10;;;;;;;31.67;19.43;;;9.40;9.40;;;;;;5054081;28;20594;-70
2024/03/03 08:38:36;;;;;;;31.07;21.13;;;9.40;7.70;;;;;;5054982;28;20198;-68
2024/03/03 08:41:03;;;;;;;31.73;21.50;;;9.50;8.80;;;;;;5053938;28;20417;-69
2024/03/03 08:43:29;;;;;;;33.13;20.53;;;9.50;8.40;;;;;;5053891;28;20469;-69
2024/03/03 08:45:55;;;;;;;28.40;19.83;;;9.40;7.40;;;;;;5044675;28;20802;-68
2024/03/03 08:48:21;;;;;;;30.43;19.93;;;9.20;8.20;;;;;;5015312;28;20456;-67
2024/03/03 08:50:47;;;;;;;28.93;21.40;;;9.30;8.30;;;;;;5035759;28;20187;-68
2024/03/03 08:53:13;;;;;;;29.63;20.30;;;9.40;7.60;;;;;;5036536;28;20227;-68
2024/03/03 08:55:39;;;;;;;30.80;19.50;;;9.50;7.30;;;;;;5022696;28;20446;-69
2024/03/03 08:58:05;;;;;;;31.60;20.63;;;9.30;7.50;;;;;;5052666;28;20529;-69
2024/03/03 09:00:31;;;;;;;31.70;19.20;;;9.40;8.30;;;;;;5054732;28;20420;-68
2024/03/03 09:02:56;;;;;;;32.30;19.63;;;9.40;8.20;;;;;;5028788;28;20285;-68
2024/03/03 09:05:22;;;;;;;30.30;19.10;;;9.60;7.80;;;;;;5037106;28;20309;-70
2024/03/03 09:07:47;;;;;;;25.70;18.30;;;9.80;6.70;;;;;;5025734;28;20191;-68
2024/03/03 09:10:13;;;;;;;28.20;18.23;;;10.00;5.20;;;;;;5016890;28;20191;-68
2024/03/03 09:12:39;;;;;;;19.07;15.63;;;10.30;2.50;;;;;;5050803;28;20196;-68
2024/03/03 09:15:06;;;;;;;30.17;17.70;;;10.40;1.40;;;;;;5070838;22;20235;-68
2024/03/03 09:17:31;;;;;;;29.50;18.17;;;10.50;1.10;;;;;;5030097;28;20286;-71
2024/03/03 09:19:57;;;;;;;25.93;19.60;;;10.80;1.30;;;;;;5030234;28;20608;-70
2024/03/03 09:22:22;;;;;;;29.57;19.80;;;10.90;1.00;;;;;;5013194;28;20187;-69
2024/03/03 09:24:48;;;;;;;23.77;18.10;;;10.80;1.00;;;;;;5029412;28;20329;-69
2024/03/03 09:27:13;;;;;;;28.30;18.80;;;10.80;1.00;;;;;;5033625;28;20183;-71
2024/03/03 09:29:39;;;;;;;33.80;22.50;;;10.90;1.00;;;;;;5031849;28;20197;-70
2024/03/03 09:32:05;;;;;;;29.03;17.50;;;11.10;1.00;;;;;;5031856;28;20189;-70
2024/03/03 09:34:30;;;;;;;18.30;14.43;;;11.00;1.00;;;;;;5031609;28;20213;-71
2024/03/03 09:36:56;;;;;;;24.43;17.47;;;10.90;1.00;;;;;;5032203;28;20262;-71
2024/03/03 09:39:23;;;;;;;22.03;16.43;;;11.10;1.00;;;;;;5014450;28;20183;-71
2024/03/03 09:41:56;;;;;;;21.83;16.53;;;11.40;1.00;;;;;;5034957;28;20300;-71
2024/03/03 09:44:23;;;;;;;19.60;14.40;;;11.70;1.00;;;;;;5034633;28;20430;-71
2024/03/03 09:46:49;;;;;;;28.03;17.97;;;11.70;1.00;;;;;;5034322;28;20929;-70
2024/03/03 09:49:20;;;;;;;16.93;13.90;;;11.70;1.00;;;;;;5034822;28;20424;-72
2024/03/03 09:51:47;;;;;;;25.53;17.33;;;11.60;1.00;;;;;;5034699;28;20180;-71
2024/03/03 09:54:20;;;;;;;19.70;14.00;;;12.00;1.00;;;;;;5034377;28;20844;-72
2024/03/03 09:56:47;;;;;;;26.67;17.50;;;12.30;1.00;;;;;;5036309;28;20936;-72
2024/03/03 09:59:14;;;;;;;23.27;16.50;;;12.30;1.00;;;;;;5034906;28;20916;-72
2024/03/03 10:01:48;;;;;;;22.47;15.00;;;12.30;1.00;;;;;;5015890;28;20414;-71
2024/03/03 10:04:16;;;;;;;21.80;16.60;;;12.50;1.00;;;;;;5033813;28;20406;-71
2024/03/03 10:06:44;;;;;;;20.40;14.83;;;12.50;1.00;;;;;;5033280;28;20453;-68
2024/03/03 10:09:15;;;;;;;26.70;16.67;;;12.60;1.00;;;;;;5033255;28;20422;-69
2024/03/03 10:11:44;;;;;;;26.37;16.33;;;12.50;1.00;;;;;;5033304;28;20433;-69
2024/03/03 10:14:11;;;;;;;22.37;17.03;;;12.50;1.00;;;;;;5033136;28;20412;-69
2024/03/03 10:16:37;;;;;;;19.67;14.03;;;12.30;1.00;;;;;;5032867;28;20504;-68
2024/03/03 10:19:04;;;;;;;19.67;14.60;;;12.30;1.00;;;;;;5033115;28;20972;-69
2024/03/03 10:21:37;;;;;;;21.03;15.43;;;12.50;1.00;;;;;;5015451;28;20186;-69
2024/03/03 10:24:23;;;;;;;20.83;15.40;;;12.50;1.00;;;;;;5033234;28;20835;-69
2024/03/03 10:26:59;;;;;;;22.90;14.70;;;12.20;1.00;;;;;;5015130;28;20459;-69
2024/03/03 10:29:26;;;;;;;16.07;12.27;;;12.50;1.00;;;;;;5015412;28;20417;-69
2024/03/03 10:31:52;;;;;;;16.87;14.20;;;12.60;1.00;;;;;;5033089;28;20417;-69
2024/03/03 10:34:20;;;;;;;16.53;12.67;;;12.70;1.00;;;;;;5032844;28;20409;-68
2024/03/03 10:36:46;;;;;;;14.10;11.80;;;12.60;1.00;;;;;;5032399;28;20441;-69
2024/03/03 10:39:12;;;;;;;15.60;10.93;;;12.70;1.00;;;;;;5034152;28;20748;-70
2024/03/03 10:41:38;;;;;;;18.80;11.97;;;12.30;1.00;;;;;;5035036;28;20410;-70
2024/03/03 10:44:06;;;;;;;14.57;10.73;;;12.30;1.00;;;;;;5015716;28;20524;-70
2024/03/03 10:46:36;;;;;;;15.33;11.70;;;12.50;1.00;;;;;;5032774;28;20960;-70
2024/03/03 10:49:01;;;;;;;15.00;9.67;;;12.70;1.00;;;;;;5032995;28;20458;-69
2024/03/03 10:51:27;;;;;;;21.57;14.57;;;12.90;1.00;;;;;;5032867;28;20503;-70
2024/03/03 10:53:55;;;;;;;18.37;12.40;;;13.10;1.00;;;;;;5032467;28;20175;-70
2024/03/03 10:56:21;;;;;;;14.40;12.10;;;13.10;1.00;;;;;;5031234;28;20203;-70
2024/03/03 10:58:49;;;;;;;14.40;10.37;;;13.00;1.00;;;;;;5032834;28;20473;-68
2024/03/03 11:01:15;;;;;;;20.33;13.30;;;13.20;1.00;;;;;;5032472;28;20417;-70
2024/03/03 11:03:52;;;;;;;16.20;11.70;;;13.40;1.00;;;;;;5016120;28;20432;-69
2024/03/03 11:06:18;;;;;;;16.23;12.57;;;13.60;1.00;;;;;;5025223;28;20442;-68
2024/03/03 11:08:51;;;;;;;13.70;10.40;;;14.00;1.00;;;;;;5027307;28;20585;-69
2024/03/03 11:11:22;;;;;;;15.70;10.20;;;14.30;1.00;;;;;;5015446;28;20184;-70
2024/03/03 11:14:06;;;;;;;11.60;9.10;;;14.40;1.00;;;;;;5020346;28;20418;-70
2024/03/03 11:16:32;;;;;;;11.23;10.10;;;14.50;1.00;;;;;;5028421;28;20832;-70
2024/03/03 11:19:03;;;;;;;16.20;9.50;;;14.50;1.00;;;;;;5025996;28;20561;-69
2024/03/03 11:21:36;;;;;;;15.43;11.17;;;14.70;1.00;;;;;;5031799;28;20518;-70
2024/03/03 11:24:06;;;;;;;16.57;11.27;;;14.40;1.00;;;;;;5031915;28;20406;-70
2024/03/03 11:26:46;;;;;;;12.20;10.27;;;14.10;1.00;;;;;;5031801;28;20445;-70
2024/03/03 11:29:12;;;;;;;11.93;10.10;;;14.30;1.00;;;;;;5012316;28;20441;-70
2024/03/03 11:31:40;;;;;;;16.57;11.63;;;14.50;1.00;;;;;;5012396;28;20546;-70
2024/03/03 11:34:07;;;;;;;11.60;10.30;;;14.90;1.00;;;;;;4995558;28;20187;-70
2024/03/03 11:36:35;;;;;;;15.63;11.40;;;15.20;1.00;;;;;;5012446;28;20445;-72
2024/03/03 11:39:15;;;;;;;11.77;10.50;;;15.40;1.00;;;;;;5031419;28;20539;-70
2024/03/03 11:41:41;;;;;;;14.47;10.90;;;15.90;1.00;;;;;;5013941;28;20517;-68
2024/03/03 11:44:35;;;;;;;12.03;8.90;;;15.90;1.00;;;;;;5031452;28;20454;-70
2024/03/03 11:47:02;;;;;;;11.37;8.60;;;16.20;1.00;;;;;;5013533;28;20418;-70
2024/03/03 11:49:30;;;;;;;11.13;7.47;;;16.40;1.00;;;;;;5031593;28;20487;-70
2024/03/03 11:51:57;;;;;;;6.10;5.50;;;16.90;1.00;;;;;;5031663;28;20901;-70
2024/03/03 11:54:36;;;;;;;4.33;3.70;;;16.80;1.00;;;;;;5031347;28;20905;-70
2024/03/03 11:57:02;;;;;;;3.63;3.20;;;16.80;1.00;;;;;;5013562;28;20508;-69
2024/03/03 11:59:37;;;;;;;2.57;2.37;;;16.80;1.00;;;;;;5031653;28;20510;-69
2024/03/03 12:02:04;;;;;;;3.03;2.77;;;16.70;1.00;;;;;;5031559;28;20468;-70
2024/03/03 12:04:30;;;;;;;2.50;2.30;;;16.70;1.00;;;;;;5031379;28;20459;-69
2024/03/03 12:06:55;;;;;;;3.00;2.70;;;16.60;1.00;;;;;;5031014;28;20449;-70
2024/03/03 12:09:22;;;;;;;5.27;2.70;;;16.50;1.00;;;;;;5013320;28;20183;-70
2024/03/03 12:11:49;;;;;;;2.50;2.30;;;16.50;1.00;;;;;;5031043;28;20438;-69
2024/03/03 12:14:15;;;;;;;2.57;2.37;;;16.60;1.00;;;;;;5030792;28;20414;-69
2024/03/03 12:16:40;;;;;;;2.80;2.60;;;16.70;1.00;;;;;;5030570;28;20503;-69
2024/03/03 12:19:08;;;;;;;2.67;2.47;;;16.80;1.00;;;;;;5031192;28;20662;-69
2024/03/03 12:21:34;;;;;;;2.50;2.30;;;16.90;1.00;;;;;;5031120;28;20554;-69
2024/03/03 12:24:04;;;;;;;2.93;2.60;;;16.90;1.00;;;;;;5031196;28;20952;-69
2024/03/03 12:26:30;;;;;;;2.70;2.50;;;17.00;1.00;;;;;;5031099;28;20464;-69
2024/03/03 12:28:56;;;;;;;3.50;2.73;;;16.90;1.00;;;;;;5031286;28;20913;-69
2024/03/03 12:31:22;;;;;;;2.60;2.33;;;16.70;1.00;;;;;;5031503;28;20450;-69
2024/03/03 12:33:47;;;;;;;2.90;2.60;;;16.60;1.00;;;;;;5031316;28;20413;-71
2024/03/03 12:36:13;;;;;;;2.60;2.40;;;16.70;1.00;;;;;;5031004;28;20282;-69
2024/03/03 12:38:39;;;;;;;2.73;2.13;;;16.80;1.00;;;;;;5013559;28;20211;-69